sensor_id;sensor_type;location;lat;lon;timestamp;temperature;humidity
47174;DHT22;36730;49.036;9.094;2023-12-28T00:02:01;23.50;53.20
47174;DHT22;36730;49.036;9.094;2023-12-28T00:04:26;23.50;53.20
47174;DHT22;36730;49.036;9.094;2023-12-28T00:06:53;23.50;53.00
47174;DHT22;36730;49.036;9.094;2023-12-28T00:09:18;23.50;53.30
47174;DHT22;36730;49.036;9.094;2023-12-28T00:11:44;23.50;53.20
47174;DHT22;36730;49.036;9.094;2023-12-28T00:14:09;23.50;53.00
47174;DHT22;36730;49.036;9.094;2023-12-28T00:16:35;23.50;53.00
47174;DHT22;36730;49.036;9.094;2023-12-28T00:19:03;23.40;53.10
47174;DHT22;36730;49.036;9.094;2023-12-28T00:21:29;23.50;53.20
47174;DHT22;36730;49.036;9.094;2023-12-28T00:23:55;23.40;53.00
47174;DHT22;36730;49.036;9.094;2023-12-28T00:26:20;23.50;53.20
47174;DHT22;36730;49.036;9.094;2023-12-28T00:28:47;23.40;53.00
47174;DHT22;36730;49.036;9.094;2023-12-28T00:31:12;23.40;53.00
47174;DHT22;36730;49.036;9.094;2023-12-28T00:33:37;23.40;53.00
47174;DHT22;36730;49.036;9.094;2023-12-28T00:36:03;23.40;52.90
47174;DHT22;36730;49.036;9.094;2023-12-28T00:38:28;23.40;53.00
47174;DHT22;36730;49.036;9.094;2023-12-28T00:40:54;23.40;53.60
47174;DHT22;36730;49.036;9.094;2023-12-28T00:43:19;23.40;53.00
47174;DHT22;36730;49.036;9.094;2023-12-28T00:45:45;23.40;53.00
47174;DHT22;36730;49.036;9.094;2023-12-28T00:48:10;23.30;53.00
47174;DHT22;36730;49.036;9.094;2023-12-28T00:50:36;23.30;52.80
47174;DHT22;36730;49.036;9.094;2023-12-28T00:53:01;23.30;52.90
47174;DHT22;36730;49.036;9.094;2023-12-28T00:55:27;23.30;53.00
47174;DHT22;36730;49.036;9.094;2023-12-28T00:57:53;23.30;52.90
47174;DHT22;36730;49.036;9.094;2023-12-28T01:00:18;23.30;52.90
47174;DHT22;36730;49.036;9.094;2023-12-28T01:02:44;23.30;52.80
47174;DHT22;36730;49.036;9.094;2023-12-28T01:05:12;23.30;52.70
47174;DHT22;36730;49.036;9.094;2023-12-28T01:07:37;23.30;52.80
47174;DHT22;36730;49.036;9.094;2023-12-28T01:10:03;23.30;52.80
47174;DHT22;36730;49.036;9.094;2023-12-28T01:12:29;23.30;52.60
47174;DHT22;36730;49.036;9.094;2023-12-28T01:14:54;23.30;52.70
47174;DHT22;36730;49.036;9.094;2023-12-28T01:17:19;23.30;52.70
47174;DHT22;36730;49.036;9.094;2023-12-28T01:19:45;23.30;52.80
47174;DHT22;36730;49.036;9.094;2023-12-28T01:22:10;23.30;52.60
47174;DHT22;36730;49.036;9.094;2023-12-28T01:24:36;23.30;52.70
47174;DHT22;36730;49.036;9.094;2023-12-28T01:27:01;23.30;52.60
47174;DHT22;36730;49.036;9.094;2023-12-28T01:29:27;23.30;52.60
47174;DHT22;36730;49.036;9.094;2023-12-28T01:31:52;23.30;52.50
47174;DHT22;36730;49.036;9.094;2023-12-28T01:34:18;23.20;52.50
47174;DHT22;36730;49.036;9.094;2023-12-28T01:36:43;23.20;52.30
47174;DHT22;36730;49.036;9.094;2023-12-28T01:39:10;23.20;52.50
47174;DHT22;36730;49.036;9.094;2023-12-28T01:41:40;23.30;52.50
47174;DHT22;36730;49.036;9.094;2023-12-28T01:44:06;23.20;52.20
47174;DHT22;36730;49.036;9.094;2023-12-28T01:46:31;23.20;52.30
47174;DHT22;36730;49.036;9.094;2023-12-28T01:48:57;23.20;52.30
47174;DHT22;36730;49.036;9.094;2023-12-28T01:51:22;23.20;52.40
47174;DHT22;36730;49.036;9.094;2023-12-28T01:53:48;23.20;52.30
47174;DHT22;36730;49.036;9.094;2023-12-28T01:56:14;23.20;52.40
47174;DHT22;36730;49.036;9.094;2023-12-28T01:58:41;23.20;52.40
47174;DHT22;36730;49.036;9.094;2023-12-28T02:01:07;23.20;52.50
47174;DHT22;36730;49.036;9.094;2023-12-28T02:03:33;23.20;52.30
47174;DHT22;36730;49.036;9.094;2023-12-28T02:05:59;23.20;52.30
47174;DHT22;36730;49.036;9.094;2023-12-28T02:08:26;23.20;52.20
47174;DHT22;36730;49.036;9.094;2023-12-28T02:10:51;23.20;52.20
47174;DHT22;36730;49.036;9.094;2023-12-28T02:13:16;23.20;52.10
47174;DHT22;36730;49.036;9.094;2023-12-28T02:15:42;23.20;52.10
47174;DHT22;36730;49.036;9.094;2023-12-28T02:18:12;23.20;52.00
47174;DHT22;36730;49.036;9.094;2023-12-28T02:20:39;23.20;52.00
47174;DHT22;36730;49.036;9.094;2023-12-28T02:23:05;23.10;51.90
47174;DHT22;36730;49.036;9.094;2023-12-28T02:25:31;23.10;52.00
47174;DHT22;36730;49.036;9.094;2023-12-28T02:27:56;23.10;51.90
47174;DHT22;36730;49.036;9.094;2023-12-28T02:30:23;23.10;52.60
47174;DHT22;36730;49.036;9.094;2023-12-28T02:35:29;23.10;51.90
47174;DHT22;36730;49.036;9.094;2023-12-28T02:37:58;23.10;51.70
47174;DHT22;36730;49.036;9.094;2023-12-28T02:40:24;23.10;51.90
47174;DHT22;36730;49.036;9.094;2023-12-28T02:42:50;23.10;51.70
47174;DHT22;36730;49.036;9.094;2023-12-28T02:45:16;23.10;51.70
47174;DHT22;36730;49.036;9.094;2023-12-28T02:47:42;23.10;51.70
47174;DHT22;36730;49.036;9.094;2023-12-28T02:50:09;23.10;51.70
47174;DHT22;36730;49.036;9.094;2023-12-28T02:52:35;23.10;51.70
47174;DHT22;36730;49.036;9.094;2023-12-28T02:55:00;23.10;51.70
47174;DHT22;36730;49.036;9.094;2023-12-28T02:57:26;23.10;51.70
47174;DHT22;36730;49.036;9.094;2023-12-28T02:59:51;23.10;51.80
47174;DHT22;36730;49.036;9.094;2023-12-28T03:02:17;23.10;51.70
47174;DHT22;36730;49.036;9.094;2023-12-28T03:04:42;23.10;51.70
47174;DHT22;36730;49.036;9.094;2023-12-28T03:07:08;23.10;51.70
47174;DHT22;36730;49.036;9.094;2023-12-28T03:09:33;23.10;51.70
47174;DHT22;36730;49.036;9.094;2023-12-28T03:12:00;23.10;51.50
47174;DHT22;36730;49.036;9.094;2023-12-28T03:14:25;23.10;51.70
47174;DHT22;36730;49.036;9.094;2023-12-28T03:16:51;23.10;51.50
47174;DHT22;36730;49.036;9.094;2023-12-28T03:19:16;23.10;51.50
47174;DHT22;36730;49.036;9.094;2023-12-28T03:21:42;23.10;51.50
47174;DHT22;36730;49.036;9.094;2023-12-28T03:24:08;23.10;51.30
47174;DHT22;36730;49.036;9.094;2023-12-28T03:26:37;23.10;51.30
47174;DHT22;36730;49.036;9.094;2023-12-28T03:29:03;23.10;51.30
47174;DHT22;36730;49.036;9.094;2023-12-28T03:31:28;23.00;51.30
47174;DHT22;36730;49.036;9.094;2023-12-28T03:33:54;23.10;51.30
47174;DHT22;36730;49.036;9.094;2023-12-28T03:36:19;23.00;51.30
47174;DHT22;36730;49.036;9.094;2023-12-28T03:38:45;23.00;51.30
47174;DHT22;36730;49.036;9.094;2023-12-28T03:41:17;23.00;51.30
47174;DHT22;36730;49.036;9.094;2023-12-28T03:43:43;23.10;51.30
47174;DHT22;36730;49.036;9.094;2023-12-28T03:46:09;23.10;51.30
47174;DHT22;36730;49.036;9.094;2023-12-28T03:48:35;23.10;51.10
47174;DHT22;36730;49.036;9.094;2023-12-28T03:51:01;23.10;51.10
47174;DHT22;36730;49.036;9.094;2023-12-28T03:53:26;23.00;51.10
47174;DHT22;36730;49.036;9.094;2023-12-28T03:55:51;23.10;51.10
47174;DHT22;36730;49.036;9.094;2023-12-28T03:58:17;23.10;51.10
47174;DHT22;36730;49.036;9.094;2023-12-28T04:00:42;23.10;51.00
47174;DHT22;36730;49.036;9.094;2023-12-28T04:03:08;23.10;51.10
47174;DHT22;36730;49.036;9.094;2023-12-28T04:05:33;23.00;51.00
47174;DHT22;36730;49.036;9.094;2023-12-28T04:07:59;23.10;50.80
47174;DHT22;36730;49.036;9.094;2023-12-28T04:10:32;23.00;50.40
47174;DHT22;36730;49.036;9.094;2023-12-28T04:12:58;23.00;50.20
47174;DHT22;36730;49.036;9.094;2023-12-28T04:15:24;23.00;50.00
47174;DHT22;36730;49.036;9.094;2023-12-28T04:17:50;23.00;50.00
47174;DHT22;36730;49.036;9.094;2023-12-28T04:20:15;23.00;50.20
47174;DHT22;36730;49.036;9.094;2023-12-28T04:22:41;23.00;50.10
47174;DHT22;36730;49.036;9.094;2023-12-28T04:25:11;23.10;50.10
47174;DHT22;36730;49.036;9.094;2023-12-28T04:27:41;23.10;50.10
47174;DHT22;36730;49.036;9.094;2023-12-28T04:30:06;23.10;50.10
47174;DHT22;36730;49.036;9.094;2023-12-28T04:32:32;23.10;50.10
47174;DHT22;36730;49.036;9.094;2023-12-28T04:34:57;23.10;50.00
47174;DHT22;36730;49.036;9.094;2023-12-28T04:37:23;23.10;50.00
47174;DHT22;36730;49.036;9.094;2023-12-28T04:39:49;23.10;49.90
47174;DHT22;36730;49.036;9.094;2023-12-28T04:42:14;23.00;49.90
47174;DHT22;36730;49.036;9.094;2023-12-28T04:44:40;23.10;49.90
47174;DHT22;36730;49.036;9.094;2023-12-28T04:47:05;23.10;49.90
47174;DHT22;36730;49.036;9.094;2023-12-28T04:49:31;23.10;49.90
47174;DHT22;36730;49.036;9.094;2023-12-28T04:51:56;23.10;49.90
47174;DHT22;36730;49.036;9.094;2023-12-28T04:54:22;23.10;49.90
47174;DHT22;36730;49.036;9.094;2023-12-28T04:56:48;23.10;49.70
47174;DHT22;36730;49.036;9.094;2023-12-28T04:59:13;23.10;49.60
47174;DHT22;36730;49.036;9.094;2023-12-28T05:01:45;23.10;49.70
47174;DHT22;36730;49.036;9.094;2023-12-28T05:04:10;23.20;49.70
47174;DHT22;36730;49.036;9.094;2023-12-28T05:06:36;23.20;49.70
47174;DHT22;36730;49.036;9.094;2023-12-28T05:09:02;23.10;49.60
47174;DHT22;36730;49.036;9.094;2023-12-28T05:11:28;23.20;49.60
47174;DHT22;36730;49.036;9.094;2023-12-28T05:13:53;23.10;49.50
47174;DHT22;36730;49.036;9.094;2023-12-28T05:16:19;23.20;49.60
47174;DHT22;36730;49.036;9.094;2023-12-28T05:18:45;23.20;49.70
47174;DHT22;36730;49.036;9.094;2023-12-28T05:21:11;23.20;49.60
47174;DHT22;36730;49.036;9.094;2023-12-28T05:23:37;23.20;49.60
47174;DHT22;36730;49.036;9.094;2023-12-28T05:26:02;23.20;49.60
47174;DHT22;36730;49.036;9.094;2023-12-28T05:28:28;23.20;49.60
47174;DHT22;36730;49.036;9.094;2023-12-28T05:30:53;23.20;49.40
47174;DHT22;36730;49.036;9.094;2023-12-28T05:33:19;23.30;49.50
47174;DHT22;36730;49.036;9.094;2023-12-28T05:35:44;23.20;49.50
47174;DHT22;36730;49.036;9.094;2023-12-28T05:38:09;23.20;49.40
47174;DHT22;36730;49.036;9.094;2023-12-28T05:40:35;23.30;49.40
47174;DHT22;36730;49.036;9.094;2023-12-28T05:43:00;23.30;49.40
47174;DHT22;36730;49.036;9.094;2023-12-28T05:45:26;23.30;49.40
47174;DHT22;36730;49.036;9.094;2023-12-28T05:47:51;23.30;49.50
47174;DHT22;36730;49.036;9.094;2023-12-28T05:50:17;23.30;49.40
47174;DHT22;36730;49.036;9.094;2023-12-28T05:52:42;23.30;49.50
47174;DHT22;36730;49.036;9.094;2023-12-28T05:55:08;23.30;49.50
47174;DHT22;36730;49.036;9.094;2023-12-28T05:57:33;23.30;49.50
47174;DHT22;36730;49.036;9.094;2023-12-28T05:59:59;23.30;49.40
47174;DHT22;36730;49.036;9.094;2023-12-28T06:02:24;23.30;49.40
47174;DHT22;36730;49.036;9.094;2023-12-28T06:04:50;23.30;49.40
47174;DHT22;36730;49.036;9.094;2023-12-28T06:07:15;23.30;49.40
47174;DHT22;36730;49.036;9.094;2023-12-28T06:09:41;23.40;49.50
47174;DHT22;36730;49.036;9.094;2023-12-28T06:12:06;23.30;49.40
47174;DHT22;36730;49.036;9.094;2023-12-28T06:14:32;23.40;49.40
47174;DHT22;36730;49.036;9.094;2023-12-28T06:16:57;23.40;49.40
47174;DHT22;36730;49.036;9.094;2023-12-28T06:19:23;23.40;49.40
47174;DHT22;36730;49.036;9.094;2023-12-28T06:21:48;23.40;49.50
47174;DHT22;36730;49.036;9.094;2023-12-28T06:24:14;23.40;49.50
47174;DHT22;36730;49.036;9.094;2023-12-28T06:26:40;23.30;49.50
47174;DHT22;36730;49.036;9.094;2023-12-28T06:29:06;23.40;49.60
47174;DHT22;36730;49.036;9.094;2023-12-28T06:31:31;23.40;49.60
47174;DHT22;36730;49.036;9.094;2023-12-28T06:34:01;23.40;49.60
47174;DHT22;36730;49.036;9.094;2023-12-28T06:36:27;23.40;49.60
47174;DHT22;36730;49.036;9.094;2023-12-28T06:38:52;23.40;49.70
47174;DHT22;36730;49.036;9.094;2023-12-28T06:41:18;23.40;49.60
47174;DHT22;36730;49.036;9.094;2023-12-28T06:43:43;23.40;49.50
47174;DHT22;36730;49.036;9.094;2023-12-28T06:46:09;23.40;49.50
47174;DHT22;36730;49.036;9.094;2023-12-28T06:48:34;23.40;49.50
47174;DHT22;36730;49.036;9.094;2023-12-28T06:51:00;23.50;49.60
47174;DHT22;36730;49.036;9.094;2023-12-28T06:53:25;23.50;49.60
47174;DHT22;36730;49.036;9.094;2023-12-28T06:55:51;23.50;49.60
47174;DHT22;36730;49.036;9.094;2023-12-28T06:58:16;23.50;49.60
47174;DHT22;36730;49.036;9.094;2023-12-28T07:00:42;23.50;49.60
47174;DHT22;36730;49.036;9.094;2023-12-28T07:03:09;23.50;49.60
47174;DHT22;36730;49.036;9.094;2023-12-28T07:05:34;23.50;49.60
47174;DHT22;36730;49.036;9.094;2023-12-28T07:08:00;23.50;49.60
47174;DHT22;36730;49.036;9.094;2023-12-28T07:10:26;23.60;49.70
47174;DHT22;36730;49.036;9.094;2023-12-28T07:12:51;23.50;49.70
47174;DHT22;36730;49.036;9.094;2023-12-28T07:15:17;23.60;49.70
47174;DHT22;36730;49.036;9.094;2023-12-28T07:17:42;23.60;49.70
47174;DHT22;36730;49.036;9.094;2023-12-28T07:20:08;23.60;50.40
47174;DHT22;36730;49.036;9.094;2023-12-28T07:22:37;23.60;49.70
47174;DHT22;36730;49.036;9.094;2023-12-28T07:25:03;23.60;49.80
47174;DHT22;36730;49.036;9.094;2023-12-28T07:27:29;23.60;49.80
47174;DHT22;36730;49.036;9.094;2023-12-28T07:29:55;23.60;49.80
47174;DHT22;36730;49.036;9.094;2023-12-28T07:32:20;23.60;49.90
47174;DHT22;36730;49.036;9.094;2023-12-28T07:34:48;23.60;49.90
47174;DHT22;36730;49.036;9.094;2023-12-28T07:37:13;23.60;49.80
47174;DHT22;36730;49.036;9.094;2023-12-28T07:39:39;23.60;49.80
47174;DHT22;36730;49.036;9.094;2023-12-28T07:42:04;23.60;49.80
47174;DHT22;36730;49.036;9.094;2023-12-28T07:44:30;23.60;49.90
47174;DHT22;36730;49.036;9.094;2023-12-28T07:46:55;23.60;49.90
47174;DHT22;36730;49.036;9.094;2023-12-28T07:49:21;23.60;49.90
47174;DHT22;36730;49.036;9.094;2023-12-28T07:51:47;23.60;49.90
47174;DHT22;36730;49.036;9.094;2023-12-28T07:54:12;23.60;50.00
47174;DHT22;36730;49.036;9.094;2023-12-28T07:56:38;23.60;49.90
47174;DHT22;36730;49.036;9.094;2023-12-28T07:59:03;23.60;50.00
47174;DHT22;36730;49.036;9.094;2023-12-28T08:01:29;23.60;50.00
47174;DHT22;36730;49.036;9.094;2023-12-28T08:03:55;23.60;50.10
47174;DHT22;36730;49.036;9.094;2023-12-28T08:06:20;23.60;50.10
47174;DHT22;36730;49.036;9.094;2023-12-28T08:08:46;23.60;50.10
47174;DHT22;36730;49.036;9.094;2023-12-28T08:11:11;23.60;50.10
47174;DHT22;36730;49.036;9.094;2023-12-28T08:13:37;23.60;50.20
47174;DHT22;36730;49.036;9.094;2023-12-28T08:16:03;23.60;50.10
47174;DHT22;36730;49.036;9.094;2023-12-28T08:18:28;23.60;50.10
47174;DHT22;36730;49.036;9.094;2023-12-28T08:20:54;23.70;50.20
47174;DHT22;36730;49.036;9.094;2023-12-28T08:23:19;23.70;50.20
47174;DHT22;36730;49.036;9.094;2023-12-28T08:25:45;23.70;50.20
47174;DHT22;36730;49.036;9.094;2023-12-28T08:28:10;23.60;50.10
47174;DHT22;36730;49.036;9.094;2023-12-28T08:30:36;23.60;50.20
47174;DHT22;36730;49.036;9.094;2023-12-28T08:33:02;23.70;50.30
47174;DHT22;36730;49.036;9.094;2023-12-28T08:35:28;23.60;50.30
47174;DHT22;36730;49.036;9.094;2023-12-28T08:37:53;23.60;50.40
47174;DHT22;36730;49.036;9.094;2023-12-28T08:40:19;23.70;50.40
47174;DHT22;36730;49.036;9.094;2023-12-28T08:42:44;23.60;50.50
47174;DHT22;36730;49.036;9.094;2023-12-28T08:45:10;23.60;50.50
47174;DHT22;36730;49.036;9.094;2023-12-28T08:47:36;23.60;50.60
47174;DHT22;36730;49.036;9.094;2023-12-28T08:50:01;23.60;50.60
47174;DHT22;36730;49.036;9.094;2023-12-28T08:52:26;23.60;50.70
47174;DHT22;36730;49.036;9.094;2023-12-28T08:54:52;23.60;50.60
47174;DHT22;36730;49.036;9.094;2023-12-28T08:57:17;23.60;50.70
47174;DHT22;36730;49.036;9.094;2023-12-28T08:59:43;23.60;50.70
47174;DHT22;36730;49.036;9.094;2023-12-28T09:02:08;23.60;50.60
47174;DHT22;36730;49.036;9.094;2023-12-28T09:04:34;23.60;50.70
47174;DHT22;36730;49.036;9.094;2023-12-28T09:06:59;23.60;50.90
47174;DHT22;36730;49.036;9.094;2023-12-28T09:09:25;23.50;51.00
47174;DHT22;36730;49.036;9.094;2023-12-28T09:11:50;23.40;51.10
47174;DHT22;36730;49.036;9.094;2023-12-28T09:14:16;23.40;51.20
47174;DHT22;36730;49.036;9.094;2023-12-28T09:16:41;23.40;51.30
47174;DHT22;36730;49.036;9.094;2023-12-28T09:19:09;23.40;51.30
47174;DHT22;36730;49.036;9.094;2023-12-28T09:21:34;23.40;51.20
47174;DHT22;36730;49.036;9.094;2023-12-28T09:24:00;23.50;51.20
47174;DHT22;36730;49.036;9.094;2023-12-28T09:26:25;23.50;51.30
47174;DHT22;36730;49.036;9.094;2023-12-28T09:28:50;23.50;51.20
47174;DHT22;36730;49.036;9.094;2023-12-28T09:31:16;23.50;51.30
47174;DHT22;36730;49.036;9.094;2023-12-28T09:33:43;23.50;51.20
47174;DHT22;36730;49.036;9.094;2023-12-28T09:36:09;23.50;51.10
47174;DHT22;36730;49.036;9.094;2023-12-28T09:38:34;23.50;51.20
47174;DHT22;36730;49.036;9.094;2023-12-28T09:41:11;23.50;51.20
47174;DHT22;36730;49.036;9.094;2023-12-28T09:43:41;23.50;51.30
47174;DHT22;36730;49.036;9.094;2023-12-28T09:46:08;23.50;51.30
47174;DHT22;36730;49.036;9.094;2023-12-28T09:48:35;23.50;51.30
47174;DHT22;36730;49.036;9.094;2023-12-28T09:51:02;23.50;51.30
47174;DHT22;36730;49.036;9.094;2023-12-28T09:53:27;23.50;51.20
47174;DHT22;36730;49.036;9.094;2023-12-28T09:55:53;23.50;51.20
47174;DHT22;36730;49.036;9.094;2023-12-28T09:58:19;23.60;51.30
47174;DHT22;36730;49.036;9.094;2023-12-28T10:00:45;23.50;51.30
47174;DHT22;36730;49.036;9.094;2023-12-28T10:03:12;23.60;51.30
47174;DHT22;36730;49.036;9.094;2023-12-28T10:05:37;23.60;51.30
47174;DHT22;36730;49.036;9.094;2023-12-28T10:08:03;23.60;51.30
47174;DHT22;36730;49.036;9.094;2023-12-28T10:10:29;23.60;51.30
47174;DHT22;36730;49.036;9.094;2023-12-28T10:12:54;23.60;51.30
47174;DHT22;36730;49.036;9.094;2023-12-28T10:15:20;23.60;51.40
47174;DHT22;36730;49.036;9.094;2023-12-28T10:17:46;23.60;51.40
47174;DHT22;36730;49.036;9.094;2023-12-28T10:20:12;23.60;51.50
47174;DHT22;36730;49.036;9.094;2023-12-28T10:22:37;23.60;51.50
47174;DHT22;36730;49.036;9.094;2023-12-28T10:25:03;23.60;51.50
47174;DHT22;36730;49.036;9.094;2023-12-28T10:27:29;23.60;51.40
47174;DHT22;36730;49.036;9.094;2023-12-28T10:29:57;23.60;51.40
47174;DHT22;36730;49.036;9.094;2023-12-28T10:32:23;23.60;51.40
47174;DHT22;36730;49.036;9.094;2023-12-28T10:34:53;23.60;51.40
47174;DHT22;36730;49.036;9.094;2023-12-28T10:37:19;23.60;51.40
47174;DHT22;36730;49.036;9.094;2023-12-28T10:39:46;23.60;51.40
47174;DHT22;36730;49.036;9.094;2023-12-28T10:42:12;23.60;51.40
47174;DHT22;36730;49.036;9.094;2023-12-28T10:44:39;23.60;51.30
47174;DHT22;36730;49.036;9.094;2023-12-28T10:47:07;23.70;51.50
47174;DHT22;36730;49.036;9.094;2023-12-28T10:49:37;23.70;51.60
47174;DHT22;36730;49.036;9.094;2023-12-28T10:52:03;23.60;51.50
47174;DHT22;36730;49.036;9.094;2023-12-28T10:56:59;23.60;51.60
47174;DHT22;36730;49.036;9.094;2023-12-28T10:59:49;23.60;51.60
47174;DHT22;36730;49.036;9.094;2023-12-28T11:02:18;23.60;51.70
47174;DHT22;36730;49.036;9.094;2023-12-28T11:04:49;23.60;51.80
47174;DHT22;36730;49.036;9.094;2023-12-28T11:07:17;23.60;51.80
47174;DHT22;36730;49.036;9.094;2023-12-28T11:09:43;23.70;51.90
47174;DHT22;36730;49.036;9.094;2023-12-28T11:12:08;23.60;51.80
47174;DHT22;36730;49.036;9.094;2023-12-28T11:14:36;23.60;51.80
47174;DHT22;36730;49.036;9.094;2023-12-28T11:17:03;23.60;51.80
47174;DHT22;36730;49.036;9.094;2023-12-28T11:19:29;23.70;51.90
47174;DHT22;36730;49.036;9.094;2023-12-28T11:21:55;23.60;51.90
47174;DHT22;36730;49.036;9.094;2023-12-28T11:24:22;23.60;52.00
47174;DHT22;36730;49.036;9.094;2023-12-28T11:26:54;23.60;52.10
47174;DHT22;36730;49.036;9.094;2023-12-28T11:29:20;23.60;52.00
47174;DHT22;36730;49.036;9.094;2023-12-28T11:31:50;23.60;52.10
47174;DHT22;36730;49.036;9.094;2023-12-28T11:34:15;23.60;52.00
47174;DHT22;36730;49.036;9.094;2023-12-28T11:36:49;23.60;52.00
47174;DHT22;36730;49.036;9.094;2023-12-28T11:39:20;23.60;52.00
47174;DHT22;36730;49.036;9.094;2023-12-28T11:41:45;23.70;52.10
47174;DHT22;36730;49.036;9.094;2023-12-28T11:44:11;23.60;52.00
47174;DHT22;36730;49.036;9.094;2023-12-28T11:46:37;23.70;52.10
47174;DHT22;36730;49.036;9.094;2023-12-28T11:49:02;23.70;52.10
47174;DHT22;36730;49.036;9.094;2023-12-28T11:51:28;23.70;52.10
47174;DHT22;36730;49.036;9.094;2023-12-28T11:53:53;23.70;52.10
47174;DHT22;36730;49.036;9.094;2023-12-28T11:56:20;23.70;52.10
47174;DHT22;36730;49.036;9.094;2023-12-28T11:58:46;23.70;52.10
47174;DHT22;36730;49.036;9.094;2023-12-28T12:01:13;23.70;52.10
47174;DHT22;36730;49.036;9.094;2023-12-28T12:03:38;23.70;52.10
47174;DHT22;36730;49.036;9.094;2023-12-28T12:06:04;23.70;52.10
47174;DHT22;36730;49.036;9.094;2023-12-28T12:08:29;23.70;52.70
47174;DHT22;36730;49.036;9.094;2023-12-28T12:11:07;23.80;52.10
47174;DHT22;36730;49.036;9.094;2023-12-28T12:13:32;23.80;52.10
47174;DHT22;36730;49.036;9.094;2023-12-28T12:15:58;23.80;52.10
47174;DHT22;36730;49.036;9.094;2023-12-28T12:18:24;23.80;52.10
47174;DHT22;36730;49.036;9.094;2023-12-28T12:20:50;23.80;52.20
47174;DHT22;36730;49.036;9.094;2023-12-28T12:23:15;23.80;52.20
47174;DHT22;36730;49.036;9.094;2023-12-28T12:25:41;23.80;52.10
47174;DHT22;36730;49.036;9.094;2023-12-28T12:28:07;23.80;52.10
47174;DHT22;36730;49.036;9.094;2023-12-28T12:30:32;23.80;52.30
47174;DHT22;36730;49.036;9.094;2023-12-28T12:32:58;23.80;52.20
47174;DHT22;36730;49.036;9.094;2023-12-28T12:35:24;23.80;52.30
47174;DHT22;36730;49.036;9.094;2023-12-28T12:37:49;23.80;52.40
47174;DHT22;36730;49.036;9.094;2023-12-28T12:40:16;23.80;52.40
47174;DHT22;36730;49.036;9.094;2023-12-28T12:42:42;23.80;52.30
47174;DHT22;36730;49.036;9.094;2023-12-28T12:45:08;23.80;52.40
47174;DHT22;36730;49.036;9.094;2023-12-28T12:47:34;23.80;52.30
47174;DHT22;36730;49.036;9.094;2023-12-28T12:50:02;23.80;52.30
47174;DHT22;36730;49.036;9.094;2023-12-28T12:52:28;23.80;52.30
47174;DHT22;36730;49.036;9.094;2023-12-28T12:54:56;23.90;52.40
47174;DHT22;36730;49.036;9.094;2023-12-28T12:57:24;23.90;52.40
47174;DHT22;36730;49.036;9.094;2023-12-28T12:59:49;23.90;52.30
47174;DHT22;36730;49.036;9.094;2023-12-28T13:02:15;23.80;52.40
47174;DHT22;36730;49.036;9.094;2023-12-28T13:04:42;23.80;52.40
47174;DHT22;36730;49.036;9.094;2023-12-28T13:07:07;23.80;52.50
47174;DHT22;36730;49.036;9.094;2023-12-28T13:09:34;23.80;52.60
47174;DHT22;36730;49.036;9.094;2023-12-28T13:12:00;23.80;52.80
47174;DHT22;36730;49.036;9.094;2023-12-28T13:14:25;23.70;52.70
47174;DHT22;36730;49.036;9.094;2023-12-28T13:16:51;23.70;52.80
47174;DHT22;36730;49.036;9.094;2023-12-28T13:19:20;23.60;52.90
47174;DHT22;36730;49.036;9.094;2023-12-28T13:21:45;23.60;53.00
47174;DHT22;36730;49.036;9.094;2023-12-28T13:24:11;23.50;53.00
47174;DHT22;36730;49.036;9.094;2023-12-28T13:26:36;23.50;53.10
47174;DHT22;36730;49.036;9.094;2023-12-28T13:29:02;23.50;53.20
47174;DHT22;36730;49.036;9.094;2023-12-28T13:31:27;23.50;53.40
47174;DHT22;36730;49.036;9.094;2023-12-28T13:33:53;23.40;53.40
47174;DHT22;36730;49.036;9.094;2023-12-28T13:36:18;23.40;53.50
47174;DHT22;36730;49.036;9.094;2023-12-28T13:38:44;23.40;53.60
47174;DHT22;36730;49.036;9.094;2023-12-28T13:41:09;23.30;53.70
47174;DHT22;36730;49.036;9.094;2023-12-28T13:43:35;23.30;53.80
47174;DHT22;36730;49.036;9.094;2023-12-28T13:46:01;23.30;53.80
47174;DHT22;36730;49.036;9.094;2023-12-28T13:48:29;23.30;53.90
47174;DHT22;36730;49.036;9.094;2023-12-28T13:50:55;23.30;53.90
47174;DHT22;36730;49.036;9.094;2023-12-28T13:53:21;23.30;53.80
47174;DHT22;36730;49.036;9.094;2023-12-28T13:55:46;23.30;53.80
47174;DHT22;36730;49.036;9.094;2023-12-28T13:58:12;23.30;53.80
47174;DHT22;36730;49.036;9.094;2023-12-28T14:00:37;23.30;53.80
47174;DHT22;36730;49.036;9.094;2023-12-28T14:03:03;23.30;53.80
47174;DHT22;36730;49.036;9.094;2023-12-28T14:05:28;23.30;53.80
47174;DHT22;36730;49.036;9.094;2023-12-28T14:07:54;23.40;53.80
47174;DHT22;36730;49.036;9.094;2023-12-28T14:10:19;23.30;53.80
47174;DHT22;36730;49.036;9.094;2023-12-28T14:12:44;23.40;53.90
47174;DHT22;36730;49.036;9.094;2023-12-28T14:15:10;23.40;53.90
47174;DHT22;36730;49.036;9.094;2023-12-28T14:17:35;23.40;54.50
47174;DHT22;36730;49.036;9.094;2023-12-28T14:20:01;23.40;53.80
47174;DHT22;36730;49.036;9.094;2023-12-28T14:22:28;23.40;53.80
47174;DHT22;36730;49.036;9.094;2023-12-28T14:24:53;23.40;54.40
47174;DHT22;36730;49.036;9.094;2023-12-28T14:27:19;23.40;53.70
47174;DHT22;36730;49.036;9.094;2023-12-28T14:29:45;23.40;53.80
47174;DHT22;36730;49.036;9.094;2023-12-28T14:32:10;23.40;53.70
47174;DHT22;36730;49.036;9.094;2023-12-28T14:37:39;23.40;53.70
47174;DHT22;36730;49.036;9.094;2023-12-28T14:40:05;23.50;53.80
47174;DHT22;36730;49.036;9.094;2023-12-28T14:42:32;23.40;53.70
47174;DHT22;36730;49.036;9.094;2023-12-28T14:44:57;23.40;53.80
47174;DHT22;36730;49.036;9.094;2023-12-28T14:47:23;23.40;53.80
47174;DHT22;36730;49.036;9.094;2023-12-28T14:49:48;23.40;53.80
47174;DHT22;36730;49.036;9.094;2023-12-28T14:52:15;23.40;53.80
47174;DHT22;36730;49.036;9.094;2023-12-28T14:54:40;23.50;53.80
47174;DHT22;36730;49.036;9.094;2023-12-28T14:57:06;23.40;53.70
47174;DHT22;36730;49.036;9.094;2023-12-28T14:59:31;23.50;53.80
47174;DHT22;36730;49.036;9.094;2023-12-28T15:01:57;23.50;54.00
47174;DHT22;36730;49.036;9.094;2023-12-28T15:04:22;23.50;53.80
47174;DHT22;36730;49.036;9.094;2023-12-28T15:06:48;23.50;53.80
47174;DHT22;36730;49.036;9.094;2023-12-28T15:09:13;23.50;53.80
47174;DHT22;36730;49.036;9.094;2023-12-28T15:11:39;23.50;53.80
47174;DHT22;36730;49.036;9.094;2023-12-28T15:14:04;23.50;53.80
47174;DHT22;36730;49.036;9.094;2023-12-28T15:16:31;23.50;53.90
47174;DHT22;36730;49.036;9.094;2023-12-28T15:18:56;23.50;54.00
47174;DHT22;36730;49.036;9.094;2023-12-28T15:21:22;23.50;54.00
47174;DHT22;36730;49.036;9.094;2023-12-28T15:23:47;23.50;54.00
47174;DHT22;36730;49.036;9.094;2023-12-28T15:26:13;23.50;54.00
47174;DHT22;36730;49.036;9.094;2023-12-28T15:28:38;23.50;53.90
47174;DHT22;36730;49.036;9.094;2023-12-28T15:31:04;23.50;54.00